Time;durP1;ratioP1;P1;durP2;ratioP2;P2;SDS_P1;SDS_P2;PMS_P1;PMS_P2;Temp;Humidity;BMP_temperature;BMP_pressure;BME280_temperature;BME280_humidity;BME280_pressure;Samples;Min_cycle;Max_cycle;Signal;HPM_P1;HPM_P2
2022/05/03 00:01:13;;;;;;;;;;;;;;;15.52;41.72;101832.44;5080778;28;20099;-65
2022/05/03 00:03:51;;;;;;;4.53;2.10;;;;;;;15.51;41.55;101830.78;5082468;28;19981;-65
2022/05/03 00:06:28;;;;;;;3.28;2.22;;;;;;;15.50;41.42;101832.66;5067640;28;20040;-65
2022/05/03 00:09:04;;;;;;;2.90;2.17;;;;;;;15.48;41.71;101840.19;5075135;28;20079;-65
2022/05/03 00:11:36;;;;;;;6.22;2.53;;;;;;;15.47;41.77;101838.53;5081364;28;20087;-65
2022/05/03 00:14:17;;;;;;;3.88;2.40;;;;;;;15.45;41.88;101837.94;5063638;28;20085;-64
2022/05/03 00:16:46;;;;;;;3.45;2.30;;;;;;;15.42;41.45;101838.41;5075891;28;20049;-64
2022/05/03 00:19:14;;;;;;;3.83;2.40;;;;;;;15.40;41.59;101835.09;5077959;28;20091;-64
2022/05/03 00:21:43;;;;;;;4.75;2.40;;;;;;;15.39;41.82;101835.31;5079906;28;20131;-64
2022/05/03 00:24:13;;;;;;;4.53;2.30;;;;;;;15.35;41.75;101829.53;5079432;28;20103;-65
2022/05/03 00:26:41;;;;;;;2.85;2.10;;;;;;;15.35;41.47;101832.25;5082827;28;20112;-65
2022/05/03 00:29:11;;;;;;;4.85;2.10;;;;;;;15.32;41.92;101832.72;5079415;28;20088;-65
2022/05/03 00:31:39;;;;;;;3.25;2.20;;;;;;;15.31;41.80;101833.75;5072016;28;20131;-65
2022/05/03 00:34:08;;;;;;;3.33;2.08;;;;;;;15.28;41.94;101823.38;5065132;28;20079;-64
2022/05/03 00:36:36;;;;;;;5.25;2.35;;;;;;;15.25;41.70;101824.66;5073699;28;20068;-65
2022/05/03 00:39:04;;;;;;;4.00;2.08;;;;;;;15.24;41.68;101816.78;5074937;28;20175;-65
2022/05/03 00:41:40;;;;;;;7.22;2.55;;;;;;;15.23;41.90;101818.66;5081463;28;20464;-65
2022/05/03 00:47:13;;;;;;;5.10;2.00;;;;;;;15.19;41.82;101822.88;5082274;28;20056;-65
2022/05/03 00:49:53;;;;;;;3.83;1.88;;;;;;;15.18;41.51;101821.22;5082455;28;20091;-65
2022/05/03 00:52:28;;;;;;;3.72;1.80;;;;;;;15.17;41.92;101821.44;5078100;28;20060;-65
2022/05/03 00:55:17;;;;;;;3.92;2.20;;;;;;;15.15;42.01;101823.56;5082545;28;20078;-65
2022/05/03 00:58:02;;;;;;;2.97;2.15;;;;;;;15.13;41.65;101825.66;5075103;28;20067;-65
2022/05/03 01:00:32;;;;;;;4.32;2.38;;;;;;;15.11;41.68;101827.78;5070139;28;20104;-65
2022/05/03 01:03:12;;;;;;;2.92;2.05;;;;;;;15.03;41.66;101815.38;5075808;28;20112;-65
2022/05/03 01:05:46;;;;;;;3.55;2.00;;;;;;;15.08;41.68;101826.34;5075309;28;20219;-66
2022/05/03 01:08:29;;;;;;;4.93;2.33;;;;;;;15.04;41.75;101827.03;5082153;28;20075;-64
2022/05/03 01:11:24;;;;;;;3.95;2.50;;;;;;;15.03;42.00;101826.22;5081854;28;20056;-65
2022/05/03 01:14:01;;;;;;;5.35;2.63;;;;;;;15.01;42.08;101819.38;5075568;28;20091;-64
2022/05/03 01:16:34;;;;;;;5.57;2.13;;;;;;;14.98;41.72;101813.34;5080334;28;20947;-65
2022/05/03 01:19:20;;;;;;;3.70;1.80;;;;;;;14.97;41.98;101810.88;5079909;28;20045;-65
2022/05/03 01:22:04;;;;;;;4.95;2.47;;;;;;;14.91;42.19;101801.78;5076966;28;20136;-65
2022/05/03 01:24:52;;;;;;;4.18;2.33;;;;;;;14.93;42.01;101815.09;5079435;28;20053;-65
2022/05/03 01:27:53;;;;;;;3.05;2.00;;;;;;;14.91;41.83;101812.59;5076477;28;20151;-65
2022/05/03 01:30:23;;;;;;;4.43;2.22;;;;;;;14.90;42.19;101810.13;5073910;28;20419;-64
2022/05/03 01:32:53;;;;;;;3.72;2.15;;;;;;;14.88;42.13;101818.47;5080695;28;20107;-64
2022/05/03 01:35:24;;;;;;;4.50;2.70;;;;;;;14.87;41.85;101819.53;5066945;28;20117;-64
2022/05/03 01:38:07;;;;;;;3.42;2.30;;;;;;;14.63;42.09;101786.09;5074413;28;20131;-64
2022/05/03 01:40:52;;;;;;;5.68;2.58;;;;;;;14.83;42.13;101809.38;5081037;28;20092;-64
2022/05/03 01:43:32;;;;;;;4.80;2.17;;;;;;;14.80;42.11;101813.38;5076719;28;20107;-64
2022/05/03 01:46:11;;;;;;;5.10;2.22;;;;;;;14.78;41.89;101810.06;5072576;28;20099;-64
2022/05/03 01:51:43;;;;;;;5.55;2.38;;;;;;;14.76;42.33;101804.06;5075012;28;20064;-64
2022/05/03 01:54:33;;;;;;;3.53;2.20;;;;;;;14.75;41.93;101804.28;5080634;28;20044;-64
2022/05/03 01:57:10;;;;;;;6.78;2.30;;;;;;;14.73;42.25;101812.63;5078408;28;20144;-64
2022/05/03 01:59:50;;;;;;;4.78;2.05;;;;;;;14.71;42.13;101806.59;5078289;28;20136;-65
2022/05/03 02:02:27;;;;;;;4.70;2.00;;;;;;;14.70;42.33;101807.66;5082501;28;20136;-64
2022/05/03 02:05:04;;;;;;;;;;;;;;;14.67;42.20;101813.53;5081451;28;20049;-64
2022/05/03 02:07:52;;;;;;;4.45;2.10;;;;;;;14.67;42.45;101812.69;5077658;28;19968;-64
2022/05/03 02:10:42;;;;;;;2.58;1.98;;;;;;;14.64;42.40;101809.38;5081193;28;20083;-64
2022/05/03 02:16:49;;;;;;;3.30;2.17;;;;;;;14.59;42.05;101803.00;5016806;28;20059;-64
2022/05/03 02:19:44;;;;;;;3.33;2.28;;;;;;;14.56;42.50;101798.88;5019494;28;20087;-64
2022/05/03 02:22:32;;;;;;;4.43;2.42;;;;;;;14.53;42.44;101795.78;5023195;28;20057;-64
2022/05/03 02:25:07;;;;;;;2.72;2.17;;;;;;;14.51;42.22;101800.59;5011136;28;20187;-64
2022/05/03 02:27:36;;;;;;;3.97;2.28;;;;;;;14.48;42.64;101801.84;5022216;28;20615;-64
2022/05/03 02:30:05;;;;;;;3.67;2.10;;;;;;;14.47;42.74;101799.38;5006218;28;20174;-64
2022/05/03 02:32:42;;;;;;;3.28;2.10;;;;;;;14.42;42.50;101800.06;5017162;28;20082;-64
2022/05/03 02:35:20;;;;;;;4.43;2.67;;;;;;;14.44;42.57;101805.25;5018540;28;20109;-64
2022/05/03 02:37:50;;;;;;;6.88;3.13;;;;;;;14.41;42.20;101801.06;5018761;28;20045;-64
2022/05/03 02:40:21;;;;;;;4.32;2.20;;;;;;;14.39;42.17;101802.34;5022889;28;20065;-64
2022/05/03 02:42:52;;;;;;;4.00;2.65;;;;;;;14.37;42.45;101799.88;5022950;28;20161;-63
2022/05/03 02:45:19;;;;;;;3.22;2.10;;;;;;;14.36;42.74;101802.78;5022042;28;20045;-64
2022/05/03 02:47:59;;;;;;;3.17;2.28;;;;;;;14.33;42.71;101806.78;5015909;28;20069;-64
2022/05/03 02:50:30;;;;;;;2.53;1.67;;;;;;;14.28;42.43;101802.03;4672461;28;10001230;-63
2022/05/03 02:53:02;;;;;;;2.55;1.90;;;;;;;14.30;42.28;101809.91;5059894;28;20470;-64
2022/05/03 02:55:42;;;;;;;4.35;2.42;;;;;;;14.28;42.34;101807.44;5085012;28;20049;-64
2022/05/03 02:58:19;;;;;;;3.67;2.10;;;;;;;14.27;42.57;101802.25;5083437;28;20108;-64
2022/05/03 03:04:02;;;;;;;3.53;2.40;;;;;;;14.23;42.71;101809.97;5080592;28;20072;-65
2022/05/03 03:06:34;;;;;;;2.65;2.10;;;;;;;14.21;42.79;101808.56;5077573;28;20084;-65
2022/05/03 03:09:03;;;;;;;3.75;2.42;;;;;;;14.19;42.81;101808.78;5078651;28;20079;-64
2022/05/03 03:11:41;;;;;;;3.72;2.35;;;;;;;14.18;42.47;101803.59;5081634;28;20076;-64
2022/05/03 03:14:21;;;;;;;3.55;2.40;;;;;;;14.15;42.39;101806.72;5067915;28;20117;-64
2022/05/03 03:16:55;;;;;;;3.30;2.17;;;;;;;14.13;42.30;101809.66;5080515;28;20044;-64
2022/05/03 03:19:46;;;;;;;4.00;2.55;;;;;;;14.11;42.43;101805.53;5082777;28;20048;-64
2022/05/03 03:22:16;;;;;;;5.40;2.33;;;;;;;14.11;42.40;101813.63;5074463;28;20041;-64
2022/05/03 03:24:48;;;;;;;3.38;2.38;;;;;;;14.10;42.73;101803.88;5064761;28;20653;-64
2022/05/03 03:27:20;;;;;;;3.75;2.35;;;;;;;14.09;42.39;101818.44;5065162;28;20080;-64
2022/05/03 03:29:53;;;;;;;5.28;2.38;;;;;;;14.07;42.68;101810.53;5075630;28;20816;-65
2022/05/03 03:32:24;;;;;;;5.32;2.30;;;;;;;14.06;42.37;101805.34;5070019;28;20533;-64
2022/05/03 03:34:55;;;;;;;4.30;2.40;;;;;;;14.05;42.84;101809.94;5082470;28;20048;-64
2022/05/03 03:37:28;;;;;;;4.88;2.67;;;;;;;14.03;42.86;101812.03;5084868;28;20200;-64
2022/05/03 03:39:56;;;;;;;3.50;2.42;;;;;;;14.02;42.63;101810.38;5071225;28;20068;-64
2022/05/03 03:42:27;;;;;;;10.07;3.20;;;;;;;14.00;42.91;101810.59;5078575;28;20494;-64
2022/05/03 03:44:58;;;;;;;3.13;2.22;;;;;;;13.98;42.98;101803.75;5070385;28;20091;-64
2022/05/03 03:47:26;;;;;;;4.88;2.80;;;;;;;13.93;43.07;101795.50;5069834;28;20048;-65
2022/05/03 03:49:57;;;;;;;5.53;2.65;;;;;;;13.93;42.82;101809.00;5064387;28;20037;-65
2022/05/03 03:52:28;;;;;;;6.72;2.50;;;;;;;13.91;42.88;101803.81;5078462;28;20056;-65
2022/05/03 03:54:56;;;;;;;5.10;2.88;;;;;;;13.79;43.03;101781.28;5083004;28;20073;-65
2022/05/03 03:57:32;;;;;;;7.05;2.75;;;;;;;13.88;42.77;101803.44;5078922;28;20060;-65
2022/05/03 04:00:02;;;;;;;4.18;2.85;;;;;;;13.87;42.94;101802.59;5083084;28;20503;-64
2022/05/03 04:02:30;;;;;;;6.68;3.00;;;;;;;13.87;43.29;101809.88;5077362;28;20135;-65
2022/05/03 04:05:00;;;;;;;5.20;2.30;;;;;;;13.85;43.05;101806.59;5066122;28;20116;-65
2022/05/03 04:07:29;;;;;;;3.38;2.47;;;;;;;13.83;42.99;101804.13;5067459;28;20505;-64
2022/05/03 04:09:57;;;;;;;5.88;2.90;;;;;;;13.81;43.01;101806.22;5073612;28;20056;-65
2022/05/03 04:12:26;;;;;;;3.83;2.55;;;;;;;13.79;43.16;101810.19;5080182;28;20129;-65
2022/05/03 04:14:53;;;;;;;4.47;2.85;;;;;;;13.78;43.42;101811.22;5074191;28;20405;-64
2022/05/03 04:17:21;;;;;;;5.80;2.45;;;;;;;13.76;43.28;101805.22;5067107;28;20104;-64
2022/05/03 04:19:49;;;;;;;4.38;2.58;;;;;;;13.72;43.26;101810.22;5093472;28;20048;-64
2022/05/03 04:22:25;;;;;;;4.45;2.42;;;;;;;13.70;42.98;101809.63;5080333;28;20086;-63
2022/05/03 04:24:55;;;;;;;5.17;2.67;;;;;;;13.70;43.11;101809.63;5083785;28;20053;-64
2022/05/03 04:27:23;;;;;;;3.92;2.40;;;;;;;13.67;43.21;101813.59;5074086;28;20040;-63
2022/05/03 04:29:52;;;;;;;7.55;2.63;;;;;;;13.66;43.47;101808.41;5081840;28;20045;-64
2022/05/03 04:32:21;;;;;;;7.68;2.38;;;;;;;13.64;43.31;101807.81;5081056;28;20075;-64
2022/05/03 04:34:49;;;;;;;5.95;2.47;;;;;;;13.64;43.53;101805.09;5083737;28;20086;-64
2022/05/03 04:37:17;;;;;;;4.95;2.47;;;;;;;13.62;43.61;101808.00;5086475;28;20083;-64
2022/05/03 04:39:44;;;;;;;6.45;2.30;;;;;;;13.62;43.58;101818.00;5070483;28;20067;-64
2022/05/03 04:42:14;;;;;;;7.03;2.80;;;;;;;13.61;43.46;101816.34;5086267;28;20054;-64
2022/05/03 04:44:42;;;;;;;3.40;2.53;;;;;;;13.61;43.21;101810.94;5083429;28;20225;-64
2022/05/03 04:47:10;;;;;;;4.10;2.60;;;;;;;13.60;43.46;101826.31;5080446;28;20067;-63
2022/05/03 04:49:38;;;;;;;3.85;2.65;;;;;;;13.54;43.23;101813.69;5081646;28;20140;-68
2022/05/03 04:52:06;;;;;;;4.10;2.53;;;;;;;13.56;43.26;101818.88;5078597;28;20040;-62
2022/05/03 04:54:35;;;;;;;4.22;2.67;;;;;;;13.55;43.64;101826.13;5083336;28;20072;-63
2022/05/03 04:57:05;;;;;;;4.47;2.70;;;;;;;13.50;43.52;101812.47;5073363;28;20071;-63
2022/05/03 04:59:36;;;;;;;5.75;2.70;;;;;;;13.53;43.47;101825.53;5082064;28;20112;-63
2022/05/03 05:02:04;;;;;;;4.63;2.80;;;;;;;13.50;43.57;101825.97;5079288;28;20072;-68
2022/05/03 05:04:32;;;;;;;6.82;2.92;;;;;;;13.49;43.48;101824.31;5080450;28;20044;-67
2022/05/03 05:06:59;;;;;;;6.03;3.70;;;;;;;13.47;43.56;101825.56;5077900;28;20405;-63
2022/05/03 05:09:27;;;;;;;6.63;2.75;;;;;;;13.44;43.34;101826.84;5082649;28;20368;-64
2022/05/03 05:11:55;;;;;;;7.03;3.42;;;;;;;13.46;43.46;101830.16;5080927;28;20053;-63
2022/05/03 05:14:23;;;;;;;3.83;2.90;;;;;;;13.45;43.80;101833.88;5076897;28;20207;-63
2022/05/03 05:16:53;;;;;;;6.03;3.17;;;;;;;13.44;43.61;101829.53;5081850;28;20044;-63
2022/05/03 05:19:21;;;;;;;5.78;3.60;;;;;;;13.43;43.49;101837.84;5067708;28;20055;-65
2022/05/03 05:21:48;;;;;;;4.38;2.67;;;;;;;13.42;43.73;101839.72;5065481;28;20052;-62
2022/05/03 05:24:16;;;;;;;4.10;2.95;;;;;;;13.41;43.47;101838.06;5079369;28;20048;-65
2022/05/03 05:26:44;;;;;;;4.18;2.97;;;;;;;13.41;43.91;101840.75;5066515;28;20052;-65
2022/05/03 05:29:12;;;;;;;6.97;2.97;;;;;;;13.41;43.86;101843.47;5065708;28;20057;-65
2022/05/03 05:31:40;;;;;;;7.03;3.03;;;;;;;13.43;43.55;101845.94;5082110;28;20048;-64
2022/05/03 05:34:09;;;;;;;7.68;3.10;;;;;;;13.43;43.42;101846.78;5079269;28;20090;-66
2022/05/03 05:36:36;;;;;;;5.85;3.25;;;;;;;13.43;43.35;101843.25;5076096;28;20403;-64
2022/05/03 05:39:04;;;;;;;3.92;3.38;;;;;;;13.44;43.55;101843.03;5073677;28;20091;-63
2022/05/03 05:41:32;;;;;;;4.78;2.60;;;;;;;13.44;43.39;101850.31;5062798;28;20076;-63
2022/05/03 05:44:00;;;;;;;6.85;3.50;;;;;;;13.46;43.76;101846.34;5066747;28;20383;-63
2022/05/03 05:46:27;;;;;;;6.13;2.88;;;;;;;13.47;43.44;101849.88;5082576;28;20473;-65
2022/05/03 05:48:55;;;;;;;6.18;2.67;;;;;;;13.47;43.63;101852.56;5064980;28;20086;-67
2022/05/03 05:51:24;;;;;;;6.65;3.00;;;;;;;13.45;43.85;101854.66;5078735;28;20052;-65
2022/05/03 05:53:51;;;;;;;5.28;3.00;;;;;;;13.47;43.78;101857.97;5071473;28;20139;-63
2022/05/03 05:56:18;;;;;;;4.60;3.13;;;;;;;13.46;43.81;101857.16;5080422;28;20077;-64
2022/05/03 05:58:47;;;;;;;7.03;3.25;;;;;;;13.46;43.63;101849.03;5069798;28;20076;-64
2022/05/03 06:01:15;;;;;;;4.68;3.17;;;;;;;13.46;43.76;101854.44;4718940;28;10000187;-67
2022/05/03 06:03:43;;;;;;;6.72;2.80;;;;;;;13.45;43.66;101860.06;5073691;28;20049;-65
2022/05/03 06:06:11;;;;;;;10.50;2.95;;;;;;;13.45;43.73;101858.19;5065330;28;20087;-66
2022/05/03 06:08:40;;;;;;;10.02;3.55;;;;;;;13.47;43.79;101861.50;5076297;28;20049;-65
2022/05/03 06:11:08;;;;;;;6.13;2.97;;;;;;;13.48;43.44;101865.84;5083888;28;20052;-66
2022/05/03 06:13:36;;;;;;;3.92;2.40;;;;;;;13.50;43.76;101862.94;5080197;28;20049;-67
2022/05/03 06:16:08;;;;;;;6.22;3.13;;;;;;;13.37;43.54;101842.25;5072090;28;20099;-65
2022/05/03 06:18:37;;;;;;;6.47;3.13;;;;;;;13.48;43.83;101863.16;5073454;28;20044;-66
2022/05/03 06:21:05;;;;;;;6.53;3.03;;;;;;;13.48;43.91;101865.03;5084436;28;20402;-64
2022/05/03 06:23:33;;;;;;;9.02;2.95;;;;;;;13.42;43.78;101857.78;5067909;28;20106;-64
2022/05/03 06:26:05;;;;;;;4.90;2.97;;;;;;;13.47;43.46;101860.69;5081580;28;20095;-63
2022/05/03 06:28:42;;;;;;;6.68;2.67;;;;;;;13.45;43.57;101866.28;5082007;28;20053;-65
2022/05/03 06:31:10;;;;;;;5.20;3.05;;;;;;;13.48;43.83;101865.03;5074680;28;20073;-64
2022/05/03 06:33:39;;;;;;;6.63;2.97;;;;;;;13.49;43.32;101874.78;5072614;28;20325;-65
2022/05/03 06:36:11;;;;;;;3.83;2.60;;;;;;;13.48;43.39;101865.03;5082110;28;20053;-64
2022/05/03 06:38:38;;;;;;;10.13;3.03;;;;;;;13.50;43.74;101873.75;5081545;28;20201;-64
2022/05/03 06:41:08;;;;;;;5.85;3.72;;;;;;;13.53;43.63;101882.25;5080814;28;20132;-65
2022/05/03 06:43:36;;;;;;;5.53;3.00;;;;;;;13.54;43.39;101872.28;5075724;28;20076;-65
2022/05/03 06:46:04;;;;;;;4.53;2.92;;;;;;;13.55;43.36;101874.75;5080792;28;20079;-64
2022/05/03 06:48:32;;;;;;;7.03;3.42;;;;;;;13.52;43.29;101863.56;5067432;28;20060;-63
2022/05/03 06:51:00;;;;;;;6.10;2.60;;;;;;;13.59;43.38;101875.97;5065389;28;20049;-63
2022/05/03 06:53:27;;;;;;;8.48;2.70;;;;;;;13.61;43.35;101868.50;5067854;28;20557;-63
2022/05/03 06:55:55;;;;;;;4.40;2.75;;;;;;;13.62;43.30;101872.00;5084985;28;20052;-63
2022/05/03 06:58:25;;;;;;;7.60;2.60;;;;;;;13.65;43.71;101872.41;5079240;28;20036;-64
2022/05/03 07:00:53;;;;;;;6.15;2.53;;;;;;;13.65;43.63;101871.59;5084201;28;20072;-64
2022/05/03 07:03:20;;;;;;;8.38;2.55;;;;;;;13.68;43.66;101877.38;5080505;28;20169;-63
2022/05/03 07:05:48;;;;;;;4.22;2.60;;;;;;;13.70;43.27;101876.34;5085175;28;20059;-63
2022/05/03 07:08:16;;;;;;;5.82;2.53;;;;;;;13.70;43.63;101877.16;5074655;28;20101;-63
2022/05/03 07:10:44;;;;;;;6.30;2.85;;;;;;;13.74;43.36;101886.50;5084690;28;20082;-64
2022/05/03 07:13:13;;;;;;;5.28;2.50;;;;;;;13.72;43.54;101877.78;5072069;28;20048;-63
2022/05/03 07:15:43;;;;;;;4.22;2.80;;;;;;;13.76;43.55;101879.00;5073958;28;20044;-64
2022/05/03 07:23:42;;;;;;;5.00;2.80;;;;;;;13.84;43.40;101881.44;5071623;28;20041;-64
2022/05/03 07:26:10;;;;;;;4.10;2.38;;;;;;;13.86;43.35;101881.22;5082798;28;20087;-64
2022/05/03 07:28:38;;;;;;;3.72;2.10;;;;;;;13.89;42.67;101880.75;5077612;28;20076;-64
2022/05/03 07:31:08;;;;;;;5.82;2.50;;;;;;;13.91;42.91;101887.59;5081273;28;20048;-64
2022/05/03 07:33:36;;;;;;;5.68;2.58;;;;;;;13.91;42.92;101893.00;5078588;28;20075;-64
2022/05/03 07:36:05;;;;;;;4.57;2.25;;;;;;;13.93;42.82;101890.91;5068901;28;20049;-64
2022/05/03 07:38:32;;;;;;;6.18;2.00;;;;;;;13.94;42.02;101886.31;5083991;28;20076;-64
2022/05/03 07:41:00;;;;;;;5.75;2.25;;;;;;;13.95;42.18;101890.69;5083578;28;20069;-63
2022/05/03 07:43:28;;;;;;;4.13;2.35;;;;;;;13.95;41.46;101887.97;5080534;28;20052;-64
2022/05/03 07:45:56;;;;;;;4.53;2.00;;;;;;;13.95;41.31;101887.97;5080666;28;20094;-64
2022/05/03 07:48:25;;;;;;;3.55;2.00;;;;;;;13.97;41.38;101885.91;5075950;28;20368;-64
2022/05/03 07:50:53;;;;;;;4.30;2.40;;;;;;;14.00;41.30;101897.09;5083982;28;20053;-64
2022/05/03 07:53:21;;;;;;;5.93;2.10;;;;;;;14.04;41.13;101889.38;5080272;28;20093;-64
2022/05/03 07:55:49;;;;;;;5.00;2.05;;;;;;;14.12;40.88;101885.56;5079547;28;20559;-64
2022/05/03 07:58:20;;;;;;;5.07;2.28;;;;;;;14.21;40.60;101884.25;5075615;28;20048;-64
2022/05/03 08:00:49;;;;;;;3.75;1.90;;;;;;;14.34;40.53;101887.69;5083054;28;20082;-64
2022/05/03 08:03:17;;;;;;;7.72;2.05;;;;;;;14.51;39.91;101890.69;5074026;28;20084;-64
2022/05/03 08:05:46;;;;;;;2.55;1.75;;;;;;;14.75;38.97;101880.88;5080480;28;20048;-64
2022/05/03 08:08:14;;;;;;;6.90;2.00;;;;;;;14.94;38.92;101885.25;5082458;28;20045;-64
2022/05/03 08:10:42;;;;;;;3.85;1.70;;;;;;;14.98;39.03;101878.31;5083285;28;20076;-63
2022/05/03 08:13:10;;;;;;;4.20;1.80;;;;;;;15.02;38.73;101891.41;5076266;28;20044;-64
2022/05/03 08:15:38;;;;;;;3.22;2.00;;;;;;;14.93;39.00;101890.88;5081801;28;20079;-64
2022/05/03 08:18:07;;;;;;;6.38;2.00;;;;;;;14.82;39.49;101895.16;5076158;28;20082;-63
2022/05/03 08:20:35;;;;;;;4.10;1.60;;;;;;;14.73;39.68;101893.81;5078643;28;20102;-64
2022/05/03 08:23:07;;;;;;;5.28;1.80;;;;;;;14.59;39.87;101873.34;5071834;28;20139;-64
2022/05/03 08:25:36;;;;;;;2.75;1.60;;;;;;;14.60;39.83;101892.06;5066166;28;20049;-63
2022/05/03 08:28:04;;;;;;;2.88;1.63;;;;;;;14.62;40.36;101900.78;5074794;28;20045;-64
2022/05/03 08:30:32;;;;;;;3.67;1.80;;;;;;;14.59;40.21;101894.97;5070278;28;20135;-64
2022/05/03 08:33:00;;;;;;;4.28;3.13;;;;;;;14.58;40.41;101902.25;5081100;28;20079;-64
2022/05/03 08:35:34;;;;;;;3.08;1.80;;;;;;;14.56;40.29;101903.53;5066479;28;20052;-63
2022/05/03 08:43:39;;;;;;;7.47;2.78;;;;;;;14.51;40.56;101896.09;5076275;28;20088;-63
2022/05/03 08:46:08;;;;;;;4.47;1.95;;;;;;;14.52;40.75;101897.75;5080660;28;20051;-64
2022/05/03 08:48:40;;;;;;;5.20;2.30;;;;;;;14.51;40.64;101885.28;5079090;28;20036;-63
2022/05/03 08:51:11;;;;;;;4.68;2.20;;;;;;;14.48;40.45;101893.81;5079560;28;20054;-63
2022/05/03 08:53:41;;;;;;;3.95;1.95;;;;;;;14.56;41.62;101895.44;5073079;28;20060;-64
2022/05/03 08:56:09;;;;;;;5.53;2.55;;;;;;;14.55;41.62;101891.06;5083173;28;20267;-63
2022/05/03 08:58:36;;;;;;;10.98;2.30;;;;;;;14.61;40.98;101906.41;5071348;28;20075;-64
2022/05/03 09:01:04;;;;;;;4.72;2.78;;;;;;;14.60;41.00;101902.03;5079844;28;20076;-64
2022/05/03 09:03:33;;;;;;;2.67;2.05;;;;;;;14.61;41.22;101904.53;5082460;28;20056;-64
2022/05/03 09:06:01;;;;;;;6.13;2.40;;;;;;;14.63;41.22;101907.84;5083101;28;20087;-64
2022/05/03 09:08:29;;;;;;;6.78;2.97;;;;;;;14.52;41.62;101881.50;5079466;28;20053;-65
2022/05/03 09:10:59;;;;;;;4.30;2.55;;;;;;;14.65;41.50;101902.19;5079470;28;20079;-64
2022/05/03 09:13:43;;;;;;;3.30;2.17;;;;;;;14.68;41.74;101896.34;5079990;28;20112;-65
2022/05/03 09:16:13;;;;;;;4.03;2.00;;;;;;;14.65;41.50;101888.69;5082996;28;20056;-65
2022/05/03 09:18:42;;;;;;;4.28;2.20;;;;;;;14.70;41.39;101898.84;5071749;28;20049;-65
2022/05/03 09:24:10;;;;;;;3.40;2.05;;;;;;;14.74;41.89;101892.75;5065624;28;20087;-65
2022/05/03 09:26:40;;;;;;;3.95;2.30;;;;;;;14.83;41.90;101891.41;5071957;28;20091;-65
2022/05/03 09:29:09;;;;;;;3.72;2.33;;;;;;;14.85;41.87;101894.72;5085018;28;20057;-64
2022/05/03 09:31:39;;;;;;;3.20;2.10;;;;;;;14.87;42.09;101898.03;5084215;28;20082;-64
2022/05/03 09:34:18;;;;;;;5.55;2.45;;;;;;;14.89;42.26;101904.03;5084702;28;20441;-64
2022/05/03 09:36:47;;;;;;;3.42;1.92;;;;;;;14.93;42.25;101888.19;5074701;28;20049;-64
2022/05/03 09:39:33;;;;;;;5.03;2.30;;;;;;;14.97;42.37;101892.91;5083513;28;20080;-64
2022/05/03 09:42:09;;;;;;;4.93;2.25;;;;;;;15.00;42.28;101897.06;5082266;28;20056;-64
2022/05/03 09:44:40;;;;;;;3.60;1.83;;;;;;;15.03;42.08;101895.78;5085793;28;20044;-65
2022/05/03 09:47:12;;;;;;;6.47;2.15;;;;;;;15.03;41.93;101899.31;5085445;28;20052;-66
2022/05/03 09:49:41;;;;;;;4.65;2.30;;;;;;;15.06;42.30;101892.63;5076520;28;20118;-65
2022/05/03 09:52:22;;;;;;;5.75;2.80;;;;;;;15.10;42.58;101893.81;5077426;28;20131;-65
2022/05/03 09:54:51;;;;;;;5.20;2.00;;;;;;;15.12;42.36;101886.28;5086297;28;20083;-65
2022/05/03 09:57:23;;;;;;;3.38;2.35;;;;;;;15.15;42.76;101891.25;5085799;28;20481;-65
2022/05/03 09:59:52;;;;;;;5.75;2.45;;;;;;;15.15;42.34;101885.84;5077520;28;20101;-65
2022/05/03 10:02:22;;;;;;;3.63;2.20;;;;;;;15.18;42.23;101888.09;5081229;28;20052;-65
2022/05/03 10:04:51;;;;;;;3.17;1.95;;;;;;;15.20;42.47;101886.81;5081437;28;20055;-65
2022/05/03 10:07:21;;;;;;;5.80;2.65;;;;;;;15.13;43.09;101867.13;5079568;28;20550;-65
2022/05/03 10:09:49;;;;;;;3.13;1.92;;;;;;;15.29;42.89;101882.75;5075553;28;20068;-64
2022/05/03 10:12:19;;;;;;;4.15;2.20;;;;;;;15.33;42.71;101887.69;5078443;28;20055;-65
2022/05/03 10:14:49;;;;;;;7.07;2.35;;;;;;;15.30;42.99;101867.31;5083242;28;20164;-65
2022/05/03 10:23:20;;;;;;;3.67;2.33;;;;;;;15.44;43.25;101867.97;5081872;28;20048;-61
2022/05/03 10:25:56;;;;;;;4.57;1.80;;;;;;;15.52;43.27;101873.91;5079050;28;20048;-64
2022/05/03 10:28:24;;;;;;;4.75;2.08;;;;;;;15.59;43.21;101865.72;5075784;28;20048;-65
2022/05/03 10:31:13;;;;;;;3.13;1.98;;;;;;;15.61;42.33;101864.38;5085310;28;20083;-66
2022/05/03 10:33:43;;;;;;;4.68;2.13;;;;;;;15.59;42.36;101863.81;4718561;28;10000564;-65
2022/05/03 10:36:45;;;;;;;4.65;2.78;;;;;;;15.55;42.42;101868.03;5079093;28;20049;-63
2022/05/03 10:39:25;;;;;;;3.15;2.55;;;;;;;15.57;42.82;101857.81;5068490;28;20644;-65
2022/05/03 10:41:58;;;;;;;5.20;2.90;;;;;;;15.59;42.99;101855.69;5081630;28;20056;-65
2022/05/03 10:44:47;;;;;;;3.17;2.50;;;;;;;15.52;42.84;101849.50;5080710;28;20052;-64
2022/05/03 10:47:21;;;;;;;4.30;2.80;;;;;;;15.65;43.19;101866.63;5077014;28;20053;-63
2022/05/03 10:50:36;;;;;;;3.42;2.30;;;;;;;15.68;42.90;101856.16;5081956;28;20087;-64
2022/05/03 10:53:22;;;;;;;8.35;2.70;;;;;;;15.71;43.17;101858.41;5080497;28;20060;-64
2022/05/03 10:56:06;;;;;;;6.47;2.22;;;;;;;15.75;42.75;101848.75;5080801;28;20049;-64
2022/05/03 10:58:36;;;;;;;4.38;2.30;;;;;;;15.83;43.48;101853.03;5081616;28;20087;-64
2022/05/03 11:01:06;;;;;;;5.57;2.78;;;;;;;15.94;43.56;101847.63;5069820;28;20108;-64
2022/05/03 11:03:36;;;;;;;4.07;2.28;;;;;;;16.09;42.95;101839.03;5081261;28;20064;-64
2022/05/03 11:06:46;;;;;;;9.57;2.47;;;;;;;16.28;44.29;101842.47;5062336;28;20053;-65
2022/05/03 11:09:16;;;;;;;3.22;2.42;;;;;;;16.37;43.87;101830.22;5076857;28;20072;-64
2022/05/03 11:12:11;;;;;;;3.63;1.85;;;;;;;16.42;43.01;101830.34;5076526;28;20095;-64
2022/05/03 11:14:56;;;;;;;4.47;2.13;;;;;;;16.43;42.55;101828.44;5071049;28;20098;-64
2022/05/03 11:17:24;;;;;;;3.28;2.00;;;;;;;16.43;42.87;101829.25;5078918;28;20051;-63
2022/05/03 11:19:59;;;;;;;5.00;1.98;;;;;;;16.44;42.37;101835.53;5071644;28;20464;-64
2022/05/03 11:22:32;;;;;;;3.08;2.13;;;;;;;16.44;42.52;101825.50;5077133;28;20357;-65
2022/05/03 11:25:07;;;;;;;2.72;2.05;;;;;;;16.46;43.11;101819.81;5075404;28;20110;-64
2022/05/03 11:27:35;;;;;;;3.05;1.90;;;;;;;16.51;43.42;101814.50;5066475;28;20483;-64
2022/05/03 11:30:07;;;;;;;4.40;2.83;;;;;;;16.53;42.25;101817.81;5065972;28;20546;-65
2022/05/03 11:32:38;;;;;;;4.68;2.67;;;;;;;16.51;42.46;101814.50;5078666;28;20060;-66
2022/05/03 11:35:10;;;;;;;4.15;2.95;;;;;;;16.54;43.12;101823.00;5075537;28;20091;-63
2022/05/03 11:37:46;;;;;;;3.15;2.25;;;;;;;16.58;43.02;101816.03;5081175;28;20048;-63
2022/05/03 11:40:16;;;;;;;5.10;2.53;;;;;;;16.63;43.15;101817.22;5075188;28;20041;-63
2022/05/03 11:42:45;;;;;;;6.32;2.95;;;;;;;16.66;42.79;101805.91;5078194;28;20059;-65
2022/05/03 11:45:14;;;;;;;9.30;2.40;;;;;;;16.72;43.15;101803.06;5079882;28;20133;-65
2022/05/03 11:47:44;;;;;;;4.07;2.78;;;;;;;16.67;42.01;101785.84;5076891;28;20075;-64
2022/05/03 11:55:58;;;;;;;3.22;2.55;;;;;;;16.76;42.08;101796.09;5076543;28;20045;-65
2022/05/03 11:56:01;;;;;;;4.07;2.63;;;;;;;16.87;42.79;101794.41;5072017;28;20215;-65
2022/05/03 11:58:31;;;;;;;4.47;2.25;;;;;;;16.92;42.56;101797.25;5078561;28;20056;-66
2022/05/03 12:00:59;;;;;;;3.70;2.30;;;;;;;16.95;42.19;101798.66;5070384;28;20079;-65
2022/05/03 12:03:27;;;;;;;9.50;3.97;;;;;;;17.02;41.36;101799.31;5076997;28;20600;-63
2022/05/03 12:06:04;;;;;;;6.38;3.58;;;;;;;16.95;41.49;101796.75;5078600;28;20485;-64
2022/05/03 12:08:34;;;;;;;6.05;2.72;;;;;;;16.93;42.41;101782.59;5073804;28;20087;-63
2022/05/03 12:11:02;;;;;;;5.40;2.75;;;;;;;17.01;42.51;101784.94;5072181;28;20076;-68
2022/05/03 12:13:31;;;;;;;6.45;3.08;;;;;;;17.07;42.14;101786.69;5067709;28;20041;-69
2022/05/03 12:16:15;;;;;;;8.30;2.58;;;;;;;17.05;42.44;101766.25;5069992;28;20037;-68
2022/05/03 12:18:45;;;;;;;8.95;2.40;;;;;;;17.23;42.58;101783.19;5070474;28;20061;-69
2022/05/03 12:21:16;;;;;;;9.98;3.00;;;;;;;17.27;42.55;101775.38;5077854;28;20169;-68
2022/05/03 12:23:46;;;;;;;4.68;3.00;;;;;;;17.31;41.98;101776.53;5066206;28;20107;-68